sensor_id;sensor_type;location;lat;lon;timestamp;temperature;humidity
13336;DHT22;6737;51.480;11.962;2022-08-02T00:01:34;18.90;99.90
13336;DHT22;6737;51.480;11.962;2022-08-02T00:04:01;18.80;99.90
13336;DHT22;6737;51.480;11.962;2022-08-02T00:06:27;18.80;99.90
13336;DHT22;6737;51.480;11.962;2022-08-02T00:08:53;18.70;99.90
13336;DHT22;6737;51.480;11.962;2022-08-02T00:11:19;18.60;99.90
13336;DHT22;6737;51.480;11.962;2022-08-02T00:13:45;18.70;99.90
13336;DHT22;6737;51.480;11.962;2022-08-02T00:16:11;18.60;99.90
13336;DHT22;6737;51.480;11.962;2022-08-02T00:18:37;18.60;99.90
13336;DHT22;6737;51.480;11.962;2022-08-02T00:21:03;18.60;99.90
13336;DHT22;6737;51.480;11.962;2022-08-02T00:23:29;18.60;99.90
13336;DHT22;6737;51.480;11.962;2022-08-02T00:25:55;18.50;99.90
13336;DHT22;6737;51.480;11.962;2022-08-02T00:28:22;18.50;99.90
13336;DHT22;6737;51.480;11.962;2022-08-02T00:30:48;18.50;99.90
13336;DHT22;6737;51.480;11.962;2022-08-02T00:33:14;18.50;99.90
13336;DHT22;6737;51.480;11.962;2022-08-02T00:35:39;18.40;99.90
13336;DHT22;6737;51.480;11.962;2022-08-02T00:38:05;18.40;99.90
13336;DHT22;6737;51.480;11.962;2022-08-02T00:40:31;18.40;99.90
13336;DHT22;6737;51.480;11.962;2022-08-02T00:43:05;18.40;99.90
13336;DHT22;6737;51.480;11.962;2022-08-02T00:45:33;18.30;99.90
13336;DHT22;6737;51.480;11.962;2022-08-02T00:47:59;18.30;99.90
13336;DHT22;6737;51.480;11.962;2022-08-02T00:50:25;18.30;99.90
13336;DHT22;6737;51.480;11.962;2022-08-02T00:52:51;18.30;99.90
13336;DHT22;6737;51.480;11.962;2022-08-02T00:55:17;18.20;99.90
13336;DHT22;6737;51.480;11.962;2022-08-02T00:57:43;18.20;99.90
13336;DHT22;6737;51.480;11.962;2022-08-02T01:00:09;18.10;99.90
13336;DHT22;6737;51.480;11.962;2022-08-02T01:02:35;18.10;99.90
13336;DHT22;6737;51.480;11.962;2022-08-02T01:05:01;18.10;99.90
13336;DHT22;6737;51.480;11.962;2022-08-02T01:07:28;18.00;99.90
13336;DHT22;6737;51.480;11.962;2022-08-02T01:09:53;18.00;99.90
13336;DHT22;6737;51.480;11.962;2022-08-02T01:12:19;18.00;99.90
13336;DHT22;6737;51.480;11.962;2022-08-02T01:14:49;17.90;99.90
13336;DHT22;6737;51.480;11.962;2022-08-02T01:30:42;17.90;99.90
13336;DHT22;6737;51.480;11.962;2022-08-02T01:33:12;17.90;99.90
13336;DHT22;6737;51.480;11.962;2022-08-02T01:35:43;17.80;99.90
13336;DHT22;6737;51.480;11.962;2022-08-02T01:38:13;17.80;99.90
13336;DHT22;6737;51.480;11.962;2022-08-02T01:40:43;17.80;99.90
13336;DHT22;6737;51.480;11.962;2022-08-02T01:43:10;17.80;99.90
13336;DHT22;6737;51.480;11.962;2022-08-02T01:45:40;17.80;99.90
13336;DHT22;6737;51.480;11.962;2022-08-02T01:48:07;17.70;99.90
13336;DHT22;6737;51.480;11.962;2022-08-02T01:50:35;17.80;99.90
13336;DHT22;6737;51.480;11.962;2022-08-02T01:53:08;17.80;99.90
13336;DHT22;6737;51.480;11.962;2022-08-02T01:55:43;17.70;99.90
13336;DHT22;6737;51.480;11.962;2022-08-02T01:58:10;17.70;99.90
13336;DHT22;6737;51.480;11.962;2022-08-02T02:00:40;17.70;99.90
13336;DHT22;6737;51.480;11.962;2022-08-02T02:03:11;17.70;99.90
13336;DHT22;6737;51.480;11.962;2022-08-02T02:05:39;17.70;99.90
13336;DHT22;6737;51.480;11.962;2022-08-02T02:08:06;17.70;99.90
13336;DHT22;6737;51.480;11.962;2022-08-02T02:10:34;17.70;99.90
13336;DHT22;6737;51.480;11.962;2022-08-02T02:13:08;17.70;99.90
13336;DHT22;6737;51.480;11.962;2022-08-02T02:15:42;17.60;99.90
13336;DHT22;6737;51.480;11.962;2022-08-02T02:18:13;17.60;99.90
13336;DHT22;6737;51.480;11.962;2022-08-02T02:20:41;17.60;99.90
13336;DHT22;6737;51.480;11.962;2022-08-02T02:23:08;17.50;99.90
13336;DHT22;6737;51.480;11.962;2022-08-02T02:25:35;17.50;99.90
13336;DHT22;6737;51.480;11.962;2022-08-02T02:28:24;17.50;99.90
13336;DHT22;6737;51.480;11.962;2022-08-02T02:31:01;17.40;99.90
13336;DHT22;6737;51.480;11.962;2022-08-02T02:33:30;17.40;99.90
13336;DHT22;6737;51.480;11.962;2022-08-02T02:35:57;17.30;99.90
13336;DHT22;6737;51.480;11.962;2022-08-02T02:38:27;17.20;99.90
13336;DHT22;6737;51.480;11.962;2022-08-02T02:40:55;17.20;99.90
13336;DHT22;6737;51.480;11.962;2022-08-02T02:43:25;17.10;99.90
13336;DHT22;6737;51.480;11.962;2022-08-02T02:45:53;17.10;99.90
13336;DHT22;6737;51.480;11.962;2022-08-02T02:48:20;17.10;99.90
13336;DHT22;6737;51.480;11.962;2022-08-02T02:50:47;17.10;99.90
13336;DHT22;6737;51.480;11.962;2022-08-02T02:53:17;17.10;99.90
13336;DHT22;6737;51.480;11.962;2022-08-02T02:55:45;17.00;99.90
13336;DHT22;6737;51.480;11.962;2022-08-02T02:58:12;17.10;99.90
13336;DHT22;6737;51.480;11.962;2022-08-02T03:00:39;17.10;99.90
13336;DHT22;6737;51.480;11.962;2022-08-02T03:03:23;17.10;99.90
13336;DHT22;6737;51.480;11.962;2022-08-02T03:05:50;17.10;99.90
13336;DHT22;6737;51.480;11.962;2022-08-02T03:08:16;17.10;99.90
13336;DHT22;6737;51.480;11.962;2022-08-02T03:10:46;17.00;99.90
13336;DHT22;6737;51.480;11.962;2022-08-02T03:13:12;16.90;99.90
13336;DHT22;6737;51.480;11.962;2022-08-02T03:15:39;16.80;99.90
13336;DHT22;6737;51.480;11.962;2022-08-02T03:18:05;16.90;99.90
13336;DHT22;6737;51.480;11.962;2022-08-02T03:20:33;16.90;99.90
13336;DHT22;6737;51.480;11.962;2022-08-02T03:22:59;17.00;99.90
13336;DHT22;6737;51.480;11.962;2022-08-02T03:25:24;16.90;99.90
13336;DHT22;6737;51.480;11.962;2022-08-02T03:27:50;16.90;99.90
13336;DHT22;6737;51.480;11.962;2022-08-02T03:30:17;16.90;99.90
13336;DHT22;6737;51.480;11.962;2022-08-02T03:32:46;16.90;99.90
13336;DHT22;6737;51.480;11.962;2022-08-02T03:35:14;16.80;99.90
13336;DHT22;6737;51.480;11.962;2022-08-02T03:37:42;16.80;99.90
13336;DHT22;6737;51.480;11.962;2022-08-02T03:40:10;16.80;99.90
13336;DHT22;6737;51.480;11.962;2022-08-02T03:42:38;16.80;99.90
13336;DHT22;6737;51.480;11.962;2022-08-02T03:45:07;16.70;99.90
13336;DHT22;6737;51.480;11.962;2022-08-02T03:47:37;16.70;99.90
13336;DHT22;6737;51.480;11.962;2022-08-02T03:50:08;16.70;99.90
13336;DHT22;6737;51.480;11.962;2022-08-02T03:52:36;16.70;99.90
13336;DHT22;6737;51.480;11.962;2022-08-02T03:55:02;16.80;99.90
13336;DHT22;6737;51.480;11.962;2022-08-02T03:57:29;16.70;99.90
13336;DHT22;6737;51.480;11.962;2022-08-02T03:59:54;16.80;99.90
13336;DHT22;6737;51.480;11.962;2022-08-02T04:02:20;16.70;99.90
13336;DHT22;6737;51.480;11.962;2022-08-02T04:04:46;16.70;99.90
13336;DHT22;6737;51.480;11.962;2022-08-02T04:07:12;16.60;99.90
13336;DHT22;6737;51.480;11.962;2022-08-02T04:09:38;16.60;99.90
13336;DHT22;6737;51.480;11.962;2022-08-02T04:12:04;16.60;99.90
13336;DHT22;6737;51.480;11.962;2022-08-02T04:14:30;16.60;99.90
13336;DHT22;6737;51.480;11.962;2022-08-02T04:17:03;16.70;99.90
13336;DHT22;6737;51.480;11.962;2022-08-02T04:19:37;16.80;99.90
13336;DHT22;6737;51.480;11.962;2022-08-02T04:22:06;16.70;99.90
13336;DHT22;6737;51.480;11.962;2022-08-02T04:24:38;16.80;99.90
13336;DHT22;6737;51.480;11.962;2022-08-02T04:27:04;16.80;99.90
13336;DHT22;6737;51.480;11.962;2022-08-02T04:29:32;16.90;99.90
13336;DHT22;6737;51.480;11.962;2022-08-02T04:31:59;16.90;99.90
13336;DHT22;6737;51.480;11.962;2022-08-02T04:34:25;16.90;99.90
13336;DHT22;6737;51.480;11.962;2022-08-02T04:36:51;16.90;99.90
13336;DHT22;6737;51.480;11.962;2022-08-02T04:39:18;16.90;99.90
13336;DHT22;6737;51.480;11.962;2022-08-02T04:41:45;17.00;99.90
13336;DHT22;6737;51.480;11.962;2022-08-02T04:44:12;17.00;99.90
13336;DHT22;6737;51.480;11.962;2022-08-02T04:46:40;17.00;99.90
13336;DHT22;6737;51.480;11.962;2022-08-02T04:49:06;17.10;99.90
13336;DHT22;6737;51.480;11.962;2022-08-02T04:51:42;17.10;99.90
13336;DHT22;6737;51.480;11.962;2022-08-02T04:54:09;17.00;99.90
13336;DHT22;6737;51.480;11.962;2022-08-02T04:56:37;17.00;99.90
13336;DHT22;6737;51.480;11.962;2022-08-02T04:59:03;17.00;99.90
13336;DHT22;6737;51.480;11.962;2022-08-02T05:01:29;17.00;99.90
13336;DHT22;6737;51.480;11.962;2022-08-02T05:03:55;17.00;99.90
13336;DHT22;6737;51.480;11.962;2022-08-02T05:06:20;17.00;99.90
13336;DHT22;6737;51.480;11.962;2022-08-02T05:08:47;17.10;99.90
13336;DHT22;6737;51.480;11.962;2022-08-02T05:11:13;17.10;99.90
13336;DHT22;6737;51.480;11.962;2022-08-02T05:13:40;17.10;99.90
13336;DHT22;6737;51.480;11.962;2022-08-02T05:16:07;17.10;99.90
13336;DHT22;6737;51.480;11.962;2022-08-02T05:18:33;17.10;99.90
13336;DHT22;6737;51.480;11.962;2022-08-02T05:20:58;17.10;99.90
13336;DHT22;6737;51.480;11.962;2022-08-02T05:23:24;17.10;99.90
13336;DHT22;6737;51.480;11.962;2022-08-02T05:25:50;17.10;99.90
13336;DHT22;6737;51.480;11.962;2022-08-02T05:28:16;17.10;99.90
13336;DHT22;6737;51.480;11.962;2022-08-02T05:30:42;17.20;99.90
13336;DHT22;6737;51.480;11.962;2022-08-02T05:33:07;17.30;99.90
13336;DHT22;6737;51.480;11.962;2022-08-02T05:35:34;17.30;99.90
13336;DHT22;6737;51.480;11.962;2022-08-02T05:38:00;17.40;99.90
13336;DHT22;6737;51.480;11.962;2022-08-02T05:40:26;17.40;99.90
13336;DHT22;6737;51.480;11.962;2022-08-02T05:42:53;17.40;99.90
13336;DHT22;6737;51.480;11.962;2022-08-02T05:45:19;17.40;99.90
13336;DHT22;6737;51.480;11.962;2022-08-02T05:47:44;17.40;99.90
13336;DHT22;6737;51.480;11.962;2022-08-02T05:50:10;17.50;99.90
13336;DHT22;6737;51.480;11.962;2022-08-02T05:55:08;17.40;99.90
13336;DHT22;6737;51.480;11.962;2022-08-02T05:57:49;17.40;99.90
13336;DHT22;6737;51.480;11.962;2022-08-02T06:00:17;17.50;99.90
13336;DHT22;6737;51.480;11.962;2022-08-02T06:02:46;17.50;99.90
13336;DHT22;6737;51.480;11.962;2022-08-02T06:05:18;17.60;99.90
13336;DHT22;6737;51.480;11.962;2022-08-02T06:07:46;17.60;99.90
13336;DHT22;6737;51.480;11.962;2022-08-02T06:10:13;17.70;99.90
13336;DHT22;6737;51.480;11.962;2022-08-02T06:12:52;17.70;99.90
13336;DHT22;6737;51.480;11.962;2022-08-02T06:15:19;17.80;99.90
13336;DHT22;6737;51.480;11.962;2022-08-02T06:17:46;17.90;99.90
13336;DHT22;6737;51.480;11.962;2022-08-02T06:20:13;18.00;99.90
13336;DHT22;6737;51.480;11.962;2022-08-02T06:22:41;18.10;99.90
13336;DHT22;6737;51.480;11.962;2022-08-02T06:25:11;18.20;99.90
13336;DHT22;6737;51.480;11.962;2022-08-02T06:27:39;18.10;99.90
13336;DHT22;6737;51.480;11.962;2022-08-02T06:30:08;18.20;99.90
13336;DHT22;6737;51.480;11.962;2022-08-02T06:32:34;18.20;99.90
13336;DHT22;6737;51.480;11.962;2022-08-02T06:35:01;18.20;99.90
13336;DHT22;6737;51.480;11.962;2022-08-02T06:37:43;18.20;99.90
13336;DHT22;6737;51.480;11.962;2022-08-02T06:40:29;18.30;99.90
13336;DHT22;6737;51.480;11.962;2022-08-02T06:43:22;18.30;99.90
13336;DHT22;6737;51.480;11.962;2022-08-02T06:45:48;18.30;99.90
13336;DHT22;6737;51.480;11.962;2022-08-02T06:48:14;18.40;99.90
13336;DHT22;6737;51.480;11.962;2022-08-02T06:50:40;18.40;99.90
13336;DHT22;6737;51.480;11.962;2022-08-02T06:53:10;18.50;99.90
13336;DHT22;6737;51.480;11.962;2022-08-02T06:55:36;18.60;99.90
13336;DHT22;6737;51.480;11.962;2022-08-02T06:58:01;18.70;99.90
13336;DHT22;6737;51.480;11.962;2022-08-02T07:00:28;18.70;99.90
13336;DHT22;6737;51.480;11.962;2022-08-02T07:02:54;18.70;99.90
13336;DHT22;6737;51.480;11.962;2022-08-02T07:05:20;18.80;99.90
13336;DHT22;6737;51.480;11.962;2022-08-02T07:07:46;18.90;99.90
13336;DHT22;6737;51.480;11.962;2022-08-02T07:10:13;19.00;99.90
13336;DHT22;6737;51.480;11.962;2022-08-02T07:12:39;19.00;99.90
13336;DHT22;6737;51.480;11.962;2022-08-02T07:15:06;19.10;99.90
13336;DHT22;6737;51.480;11.962;2022-08-02T07:17:34;19.10;99.90
13336;DHT22;6737;51.480;11.962;2022-08-02T07:20:00;19.20;99.90
13336;DHT22;6737;51.480;11.962;2022-08-02T07:22:26;19.30;99.90
13336;DHT22;6737;51.480;11.962;2022-08-02T07:24:55;19.40;99.90
13336;DHT22;6737;51.480;11.962;2022-08-02T07:27:22;19.50;99.90
13336;DHT22;6737;51.480;11.962;2022-08-02T07:29:49;19.60;99.90
13336;DHT22;6737;51.480;11.962;2022-08-02T07:32:20;19.70;99.90
13336;DHT22;6737;51.480;11.962;2022-08-02T07:34:46;19.80;99.90
13336;DHT22;6737;51.480;11.962;2022-08-02T07:37:13;19.80;99.90
13336;DHT22;6737;51.480;11.962;2022-08-02T07:39:38;19.90;99.90
13336;DHT22;6737;51.480;11.962;2022-08-02T07:42:04;20.00;99.90
13336;DHT22;6737;51.480;11.962;2022-08-02T07:44:30;20.10;99.90
13336;DHT22;6737;51.480;11.962;2022-08-02T07:47:03;20.10;99.90
13336;DHT22;6737;51.480;11.962;2022-08-02T07:49:29;20.20;99.90
13336;DHT22;6737;51.480;11.962;2022-08-02T07:51:55;20.20;99.90
13336;DHT22;6737;51.480;11.962;2022-08-02T07:54:22;20.30;99.90
13336;DHT22;6737;51.480;11.962;2022-08-02T07:56:48;20.40;99.90
13336;DHT22;6737;51.480;11.962;2022-08-02T07:59:14;20.50;99.90
13336;DHT22;6737;51.480;11.962;2022-08-02T08:01:40;20.60;99.90
13336;DHT22;6737;51.480;11.962;2022-08-02T08:04:06;20.70;99.90
13336;DHT22;6737;51.480;11.962;2022-08-02T08:06:32;20.70;99.90
13336;DHT22;6737;51.480;11.962;2022-08-02T08:08:58;20.70;99.90
13336;DHT22;6737;51.480;11.962;2022-08-02T08:11:25;20.80;99.90
13336;DHT22;6737;51.480;11.962;2022-08-02T08:13:51;20.80;99.90
13336;DHT22;6737;51.480;11.962;2022-08-02T08:16:17;20.90;99.90
13336;DHT22;6737;51.480;11.962;2022-08-02T08:18:43;20.80;99.90
13336;DHT22;6737;51.480;11.962;2022-08-02T08:21:09;20.90;99.90
13336;DHT22;6737;51.480;11.962;2022-08-02T08:23:35;20.90;99.90
13336;DHT22;6737;51.480;11.962;2022-08-02T08:26:02;20.90;99.90
13336;DHT22;6737;51.480;11.962;2022-08-02T08:28:29;20.90;99.90
13336;DHT22;6737;51.480;11.962;2022-08-02T08:30:55;21.10;99.90
13336;DHT22;6737;51.480;11.962;2022-08-02T08:33:20;21.20;99.90
13336;DHT22;6737;51.480;11.962;2022-08-02T08:35:46;21.20;99.90
13336;DHT22;6737;51.480;11.962;2022-08-02T08:38:12;21.30;99.90
13336;DHT22;6737;51.480;11.962;2022-08-02T08:40:40;21.40;99.90
13336;DHT22;6737;51.480;11.962;2022-08-02T08:43:07;21.40;99.90
13336;DHT22;6737;51.480;11.962;2022-08-02T08:45:33;21.50;99.90
13336;DHT22;6737;51.480;11.962;2022-08-02T08:48:11;21.50;99.90
13336;DHT22;6737;51.480;11.962;2022-08-02T08:50:49;21.50;99.90
13336;DHT22;6737;51.480;11.962;2022-08-02T08:53:19;21.70;99.90
13336;DHT22;6737;51.480;11.962;2022-08-02T08:55:47;21.60;99.90
13336;DHT22;6737;51.480;11.962;2022-08-02T08:58:13;21.70;99.90
13336;DHT22;6737;51.480;11.962;2022-08-02T09:00:40;21.80;99.90
13336;DHT22;6737;51.480;11.962;2022-08-02T09:03:06;21.80;99.90
13336;DHT22;6737;51.480;11.962;2022-08-02T09:05:39;21.80;99.90
13336;DHT22;6737;51.480;11.962;2022-08-02T09:08:07;21.80;99.90
13336;DHT22;6737;51.480;11.962;2022-08-02T09:10:40;21.90;99.90
13336;DHT22;6737;51.480;11.962;2022-08-02T09:13:11;22.00;99.90
13336;DHT22;6737;51.480;11.962;2022-08-02T09:15:38;22.00;99.90
13336;DHT22;6737;51.480;11.962;2022-08-02T09:18:06;22.10;99.90
13336;DHT22;6737;51.480;11.962;2022-08-02T09:20:33;22.20;99.90
13336;DHT22;6737;51.480;11.962;2022-08-02T09:23:10;22.20;99.90
13336;DHT22;6737;51.480;11.962;2022-08-02T09:25:36;22.40;99.90
13336;DHT22;6737;51.480;11.962;2022-08-02T09:28:03;22.50;99.90
13336;DHT22;6737;51.480;11.962;2022-08-02T09:30:29;22.50;99.90
13336;DHT22;6737;51.480;11.962;2022-08-02T09:32:56;22.60;99.90
13336;DHT22;6737;51.480;11.962;2022-08-02T09:35:37;22.70;99.90
13336;DHT22;6737;51.480;11.962;2022-08-02T09:38:12;22.70;99.90
13336;DHT22;6737;51.480;11.962;2022-08-02T09:40:39;22.80;99.90
13336;DHT22;6737;51.480;11.962;2022-08-02T09:43:06;22.90;99.90
13336;DHT22;6737;51.480;11.962;2022-08-02T09:45:33;22.90;99.90
13336;DHT22;6737;51.480;11.962;2022-08-02T09:48:10;23.00;99.90
13336;DHT22;6737;51.480;11.962;2022-08-02T09:50:38;23.10;99.90
13336;DHT22;6737;51.480;11.962;2022-08-02T09:53:05;23.10;99.90
13336;DHT22;6737;51.480;11.962;2022-08-02T09:55:35;23.30;99.90
13336;DHT22;6737;51.480;11.962;2022-08-02T09:58:20;23.40;99.90
13336;DHT22;6737;51.480;11.962;2022-08-02T10:00:54;23.50;99.90
13336;DHT22;6737;51.480;11.962;2022-08-02T10:03:21;23.60;99.90
13336;DHT22;6737;51.480;11.962;2022-08-02T10:05:54;23.60;99.90
13336;DHT22;6737;51.480;11.962;2022-08-02T10:08:21;23.60;99.90
13336;DHT22;6737;51.480;11.962;2022-08-02T10:10:47;23.60;99.90
13336;DHT22;6737;51.480;11.962;2022-08-02T10:13:14;23.70;99.90
13336;DHT22;6737;51.480;11.962;2022-08-02T10:15:40;23.70;99.90
13336;DHT22;6737;51.480;11.962;2022-08-02T10:18:08;23.70;99.90
13336;DHT22;6737;51.480;11.962;2022-08-02T10:20:54;23.70;99.90
13336;DHT22;6737;51.480;11.962;2022-08-02T10:23:21;23.80;99.90
13336;DHT22;6737;51.480;11.962;2022-08-02T10:25:50;23.80;99.90
13336;DHT22;6737;51.480;11.962;2022-08-02T10:28:20;23.90;99.90
13336;DHT22;6737;51.480;11.962;2022-08-02T10:30:58;24.00;99.90
13336;DHT22;6737;51.480;11.962;2022-08-02T10:33:26;24.10;99.90
13336;DHT22;6737;51.480;11.962;2022-08-02T10:35:55;24.20;99.90
13336;DHT22;6737;51.480;11.962;2022-08-02T10:38:23;24.20;99.90
13336;DHT22;6737;51.480;11.962;2022-08-02T10:40:52;24.30;99.90
13336;DHT22;6737;51.480;11.962;2022-08-02T10:43:45;24.30;99.90
13336;DHT22;6737;51.480;11.962;2022-08-02T10:49:20;24.50;99.90
13336;DHT22;6737;51.480;11.962;2022-08-02T10:54:41;24.60;99.90
13336;DHT22;6737;51.480;11.962;2022-08-02T10:57:15;24.70;99.90
13336;DHT22;6737;51.480;11.962;2022-08-02T10:59:42;24.70;99.90
13336;DHT22;6737;51.480;11.962;2022-08-02T11:02:09;24.70;99.90
13336;DHT22;6737;51.480;11.962;2022-08-02T11:09:36;24.80;99.90
13336;DHT22;6737;51.480;11.962;2022-08-02T11:12:08;24.90;99.90
13336;DHT22;6737;51.480;11.962;2022-08-02T11:14:37;25.00;99.40
13336;DHT22;6737;51.480;11.962;2022-08-02T11:19:30;25.10;99.50
13336;DHT22;6737;51.480;11.962;2022-08-02T11:24:33;25.20;99.90
13336;DHT22;6737;51.480;11.962;2022-08-02T11:27:04;25.20;99.90
13336;DHT22;6737;51.480;11.962;2022-08-02T11:29:42;25.20;99.90
13336;DHT22;6737;51.480;11.962;2022-08-02T11:32:21;25.20;99.90
13336;DHT22;6737;51.480;11.962;2022-08-02T11:34:49;25.20;98.20
13336;DHT22;6737;51.480;11.962;2022-08-02T11:37:36;25.30;98.40
13336;DHT22;6737;51.480;11.962;2022-08-02T11:40:07;25.40;97.90
13336;DHT22;6737;51.480;11.962;2022-08-02T11:42:35;25.40;98.10
13336;DHT22;6737;51.480;11.962;2022-08-02T11:45:03;25.50;97.90
13336;DHT22;6737;51.480;11.962;2022-08-02T11:47:30;25.50;98.60
13336;DHT22;6737;51.480;11.962;2022-08-02T11:50:09;25.60;97.60
13336;DHT22;6737;51.480;11.962;2022-08-02T11:52:36;25.60;97.90
13336;DHT22;6737;51.480;11.962;2022-08-02T11:55:04;25.60;98.00
13336;DHT22;6737;51.480;11.962;2022-08-02T11:57:32;25.50;97.80
13336;DHT22;6737;51.480;11.962;2022-08-02T11:59:58;25.50;98.50
13336;DHT22;6737;51.480;11.962;2022-08-02T12:02:28;25.50;97.70
13336;DHT22;6737;51.480;11.962;2022-08-02T12:05:00;25.50;97.60
13336;DHT22;6737;51.480;11.962;2022-08-02T12:07:31;25.50;97.80
13336;DHT22;6737;51.480;11.962;2022-08-02T12:10:02;25.40;97.00
13336;DHT22;6737;51.480;11.962;2022-08-02T12:12:28;25.40;96.50
13336;DHT22;6737;51.480;11.962;2022-08-02T12:14:54;25.40;96.60
13336;DHT22;6737;51.480;11.962;2022-08-02T12:17:24;25.40;97.40
13336;DHT22;6737;51.480;11.962;2022-08-02T12:20:09;25.50;97.10
13336;DHT22;6737;51.480;11.962;2022-08-02T12:22:36;25.50;97.20
13336;DHT22;6737;51.480;11.962;2022-08-02T12:25:19;25.60;97.80
13336;DHT22;6737;51.480;11.962;2022-08-02T12:27:47;25.60;97.90
13336;DHT22;6737;51.480;11.962;2022-08-02T12:30:16;25.70;96.70
13336;DHT22;6737;51.480;11.962;2022-08-02T12:32:43;25.70;96.80
13336;DHT22;6737;51.480;11.962;2022-08-02T12:35:16;25.80;96.90
13336;DHT22;6737;51.480;11.962;2022-08-02T12:37:46;25.70;97.10
13336;DHT22;6737;51.480;11.962;2022-08-02T12:40:32;25.80;95.40
13336;DHT22;6737;51.480;11.962;2022-08-02T12:43:00;25.80;96.50
13336;DHT22;6737;51.480;11.962;2022-08-02T12:45:30;25.80;97.50
13336;DHT22;6737;51.480;11.962;2022-08-02T12:47:59;26.10;97.50
13336;DHT22;6737;51.480;11.962;2022-08-02T12:50:32;26.10;97.40
13336;DHT22;6737;51.480;11.962;2022-08-02T12:53:14;26.00;96.30
13336;DHT22;6737;51.480;11.962;2022-08-02T12:56:09;26.00;96.50
13336;DHT22;6737;51.480;11.962;2022-08-02T12:58:51;26.00;96.40
13336;DHT22;6737;51.480;11.962;2022-08-02T13:01:21;26.00;95.30
13336;DHT22;6737;51.480;11.962;2022-08-02T13:03:47;26.00;96.20
13336;DHT22;6737;51.480;11.962;2022-08-02T13:06:14;26.00;95.50
13336;DHT22;6737;51.480;11.962;2022-08-02T13:08:40;26.00;96.10
13336;DHT22;6737;51.480;11.962;2022-08-02T13:11:06;26.10;95.90
13336;DHT22;6737;51.480;11.962;2022-08-02T13:13:32;26.10;96.00
13336;DHT22;6737;51.480;11.962;2022-08-02T13:15:57;26.20;96.00
13336;DHT22;6737;51.480;11.962;2022-08-02T13:18:23;26.20;95.10
13336;DHT22;6737;51.480;11.962;2022-08-02T13:20:49;26.10;95.20
13336;DHT22;6737;51.480;11.962;2022-08-02T13:23:15;26.10;95.30
13336;DHT22;6737;51.480;11.962;2022-08-02T13:25:41;26.10;96.10
13336;DHT22;6737;51.480;11.962;2022-08-02T13:28:07;26.20;94.30
13336;DHT22;6737;51.480;11.962;2022-08-02T13:30:33;26.20;94.50
13336;DHT22;6737;51.480;11.962;2022-08-02T13:32:59;26.30;95.40
13336;DHT22;6737;51.480;11.962;2022-08-02T13:35:25;26.50;94.70
13336;DHT22;6737;51.480;11.962;2022-08-02T13:37:52;26.40;94.60
13336;DHT22;6737;51.480;11.962;2022-08-02T13:40:18;26.50;95.40
13336;DHT22;6737;51.480;11.962;2022-08-02T13:42:44;26.60;95.90
13336;DHT22;6737;51.480;11.962;2022-08-02T13:45:11;26.50;95.60
13336;DHT22;6737;51.480;11.962;2022-08-02T13:47:41;26.40;95.50
13336;DHT22;6737;51.480;11.962;2022-08-02T13:50:07;26.30;95.50
13336;DHT22;6737;51.480;11.962;2022-08-02T13:52:33;26.30;95.90
13336;DHT22;6737;51.480;11.962;2022-08-02T13:54:59;26.30;96.90
13336;DHT22;6737;51.480;11.962;2022-08-02T13:57:25;26.30;95.40
13336;DHT22;6737;51.480;11.962;2022-08-02T13:59:51;26.30;96.30
13336;DHT22;6737;51.480;11.962;2022-08-02T14:02:16;26.30;95.60
13336;DHT22;6737;51.480;11.962;2022-08-02T14:04:42;26.40;95.00
13336;DHT22;6737;51.480;11.962;2022-08-02T14:07:08;26.40;95.00
13336;DHT22;6737;51.480;11.962;2022-08-02T14:09:34;26.40;95.50
13336;DHT22;6737;51.480;11.962;2022-08-02T14:12:04;26.40;94.90
13336;DHT22;6737;51.480;11.962;2022-08-02T14:14:31;26.40;95.50
13336;DHT22;6737;51.480;11.962;2022-08-02T14:16:57;26.40;94.90
13336;DHT22;6737;51.480;11.962;2022-08-02T14:19:23;26.50;94.00
13336;DHT22;6737;51.480;11.962;2022-08-02T14:21:50;26.50;93.50
13336;DHT22;6737;51.480;11.962;2022-08-02T14:24:17;26.60;94.20
13336;DHT22;6737;51.480;11.962;2022-08-02T14:26:44;26.60;92.70
13336;DHT22;6737;51.480;11.962;2022-08-02T14:29:10;26.60;93.00
13336;DHT22;6737;51.480;11.962;2022-08-02T14:31:36;26.50;93.30
13336;DHT22;6737;51.480;11.962;2022-08-02T14:34:02;26.40;93.90
13336;DHT22;6737;51.480;11.962;2022-08-02T14:36:28;26.30;93.60
13336;DHT22;6737;51.480;11.962;2022-08-02T14:38:55;26.30;93.50
13336;DHT22;6737;51.480;11.962;2022-08-02T14:41:21;26.30;92.70
13336;DHT22;6737;51.480;11.962;2022-08-02T14:43:47;26.30;92.70
13336;DHT22;6737;51.480;11.962;2022-08-02T14:46:35;26.40;93.40
13336;DHT22;6737;51.480;11.962;2022-08-02T14:49:02;26.60;92.90
13336;DHT22;6737;51.480;11.962;2022-08-02T14:51:30;26.60;92.20
13336;DHT22;6737;51.480;11.962;2022-08-02T14:53:57;26.60;93.40
13336;DHT22;6737;51.480;11.962;2022-08-02T14:56:23;26.50;93.50
13336;DHT22;6737;51.480;11.962;2022-08-02T14:58:49;26.40;93.40
13336;DHT22;6737;51.480;11.962;2022-08-02T15:01:15;26.30;93.00
13336;DHT22;6737;51.480;11.962;2022-08-02T15:03:40;26.30;93.30
13336;DHT22;6737;51.480;11.962;2022-08-02T15:06:06;26.40;93.70
13336;DHT22;6737;51.480;11.962;2022-08-02T15:08:32;26.30;94.10
13336;DHT22;6737;51.480;11.962;2022-08-02T15:10:58;26.30;94.00
13336;DHT22;6737;51.480;11.962;2022-08-02T15:13:23;26.30;95.30
13336;DHT22;6737;51.480;11.962;2022-08-02T15:15:49;26.20;93.50
13336;DHT22;6737;51.480;11.962;2022-08-02T15:18:16;26.30;92.90
13336;DHT22;6737;51.480;11.962;2022-08-02T15:20:42;26.30;92.80
13336;DHT22;6737;51.480;11.962;2022-08-02T15:23:08;26.30;92.70
13336;DHT22;6737;51.480;11.962;2022-08-02T15:25:34;26.20;93.20
13336;DHT22;6737;51.480;11.962;2022-08-02T15:28:00;26.20;91.90
13336;DHT22;6737;51.480;11.962;2022-08-02T15:30:26;26.30;92.00
13336;DHT22;6737;51.480;11.962;2022-08-02T15:32:52;26.20;93.30
13336;DHT22;6737;51.480;11.962;2022-08-02T15:35:18;26.10;91.10
13336;DHT22;6737;51.480;11.962;2022-08-02T15:37:43;26.00;92.70
13336;DHT22;6737;51.480;11.962;2022-08-02T15:40:09;25.90;92.90
13336;DHT22;6737;51.480;11.962;2022-08-02T15:42:35;25.80;94.40
13336;DHT22;6737;51.480;11.962;2022-08-02T15:45:01;25.80;94.60
13336;DHT22;6737;51.480;11.962;2022-08-02T15:47:27;25.70;94.40
13336;DHT22;6737;51.480;11.962;2022-08-02T15:49:53;25.70;94.30
13336;DHT22;6737;51.480;11.962;2022-08-02T15:52:19;25.60;94.60
13336;DHT22;6737;51.480;11.962;2022-08-02T15:54:44;25.70;95.60
13336;DHT22;6737;51.480;11.962;2022-08-02T15:57:10;25.60;95.60
13336;DHT22;6737;51.480;11.962;2022-08-02T15:59:36;25.70;95.80
13336;DHT22;6737;51.480;11.962;2022-08-02T16:02:02;25.60;95.80
13336;DHT22;6737;51.480;11.962;2022-08-02T16:04:28;25.60;95.50
13336;DHT22;6737;51.480;11.962;2022-08-02T16:06:54;25.50;95.10
13336;DHT22;6737;51.480;11.962;2022-08-02T16:09:20;25.50;94.80